CheckWX is a tool to help pilots better visualize weather data.  It is not intended as a substitute for an official pre-flight weather briefing.

14:39:46 UTC

PAKU METAR
Ugnu-Kuparuk Airport
Kuparuk, Alaska, USA
Current

55 mins ago

PAKU 211345Z 05010KT 10SM R06/P6000FT OVC015 M15/M17 A2938
Observed
Nov-21 @ 13:45 UTC
Wind
  • 050° at 10 KTS
Visibility
10 SM
Flight Rules
MVFR
Cloud Levels
  • Overcast at 1,500' AGL
Temperature
-15°C / 5°F
Dewpoint
-17°C / 1°F
Humidity
85%
Altimeter
29.38" Hg
Pressure
994.92 hPa
Previous

2 hours ago

PAKU 211245Z 07008KT 10SM R06/P6000FT BKN017 M15/M17 A2940
Observed
Nov-21 @ 12:45 UTC
Wind
  • 070° at 8 KTS
Visibility
10 SM
Flight Rules
MVFR
Cloud Levels
  • Broken at 1,700' AGL
Temperature
-15°C / 5°F
Dewpoint
-17°C / 1°F
Humidity
85%
Altimeter
29.4" Hg
Pressure
995.62 hPa
Previous

11 hours ago

PAKU 210345Z 31004KT 10SM R24/P6000FT BKN020 OVC032 M16/M18 A2950 RMK LAST
Observed
Nov-21 @ 03:45 UTC
Wind
  • 310° at 4 KTS
Visibility
10 SM
Flight Rules
MVFR
Cloud Levels
  • Broken at 2,000' AGL
  • Overcast at 3,200' AGL
Temperature
-16°C / 3°F
Dewpoint
-18°C / -0°F
Humidity
85%
Altimeter
29.5" Hg
Pressure
999.02 hPa